Time;durP1;ratioP1;P1;durP2;ratioP2;P2;SDS_P1;SDS_P2;PMS_P1;PMS_P2;Temp;Humidity;BMP_temperature;BMP_pressure;BME280_temperature;BME280_humidity;BME280_pressure;Samples;Min_cycle;Max_cycle;Signal;HPM_P1;HPM_P2
2023/06/14 00:01:38;;;;;;;;;;;;;;;18.32;48.88;101383.41;4967760;28;20046;-79
2023/06/14 00:04:04;;;;;;;;;;;;;;;18.35;49.38;101393.16;4967550;28;19983;-79
2023/06/14 00:06:30;;;;;;;;;;;;;;;18.31;48.78;101391.75;4986748;28;20482;-79
2023/06/14 00:08:55;;;;;;;;;;;;;;;18.26;48.42;101389.50;4984478;28;19925;-79
2023/06/14 00:11:21;;;;;;;;;;;;;;;18.20;49.83;101392.84;4970774;28;20008;-79
2023/06/14 00:13:46;;;;;;;;;;;;;;;18.13;49.45;101393.47;4971089;28;19930;-78
2023/06/14 00:16:11;;;;;;;;;;;;;;;18.18;48.77;101393.00;4971940;28;19922;-83
2023/06/14 00:18:38;;;;;;;;;;;;;;;18.13;48.84;101389.91;4968280;28;20376;-78
2023/06/14 00:21:03;;;;;;;;;;;;;;;18.10;49.34;101390.22;4971224;28;19922;-78
2023/06/14 00:23:29;;;;;;;;;;;;;;;18.08;49.02;101398.50;4969113;28;19929;-78
2023/06/14 00:25:54;;;;;;;;;;;;;;;18.03;48.79;101402.72;4971888;28;19928;-78
2023/06/14 00:28:20;;;;;;;;;;;;;;;17.92;50.38;101395.63;4969135;28;19925;-78
2023/06/14 00:30:46;;;;;;;;;;;;;;;17.90;49.46;101395.75;4959774;28;20041;-79
2023/06/14 00:33:11;;;;;;;;;;;;;;;17.85;49.96;101400.81;4980974;28;19937;-79
2023/06/14 00:35:36;;;;;;;;;;;;;;;17.88;49.91;101399.63;4970108;28;20358;-77
2023/06/14 00:38:02;;;;;;;;;;;;;;;17.88;49.80;101402.34;4967135;28;20712;-76
2023/06/14 00:40:27;;;;;;;;;;;;;;;17.91;49.12;101407.50;4971121;28;20351;-76
2023/06/14 00:42:52;;;;;;;;;;;;;;;17.94;48.63;101399.03;4966868;28;19972;-78
2023/06/14 00:45:17;;;;;;;;;;;;;;;17.89;49.19;101404.06;4966742;28;19930;-76
2023/06/14 00:47:43;;;;;;;;;;;;;;;17.92;49.38;101410.03;4969604;28;19922;-78
2023/06/14 00:50:08;;;;;;;;;;;;;;;17.90;49.18;101412.03;4968961;28;19965;-79
2023/06/14 00:52:34;;;;;;;;;;;;;;;17.86;49.60;101405.25;4970686;28;19929;-79
2023/06/14 00:54:59;;;;;;;;;;;;;;;17.79;49.57;101412.28;4984373;28;20284;-79
2023/06/14 00:57:24;;;;;;;;;;;;;;;17.72;49.85;101408.47;4966677;28;19929;-78
2023/06/14 00:59:50;;;;;;;;;;;;;;;17.70;49.74;101408.63;4970411;28;19922;-78
2023/06/14 01:02:15;;;;;;;;;;;;;;;17.68;50.62;101413.34;4966685;28;19925;-78
2023/06/14 01:04:45;;;;;;;;;;;;;;;17.63;49.81;101411.06;4963344;28;19928;-78
2023/06/14 01:07:14;;;;;;;;;;;;;;;17.61;51.19;101410.38;4962914;28;19937;-79
2023/06/14 01:10:20;;;;;;;;;;;;;;;17.45;50.20;101399.34;4969216;28;19926;-78
2023/06/14 01:13:05;;;;;;;;;;;;;;;17.52;50.42;101412.16;4945654;28;20005;-78
2023/06/14 01:15:30;;;;;;;;;;;;;;;17.45;50.98;101419.22;4951216;28;19928;-77
2023/06/14 01:17:57;;;;;;;;;;;;;;;17.37;51.24;101411.78;4967070;28;19921;-77
2023/06/14 01:20:22;;;;;;;;;;;;;;;17.35;51.50;101412.97;4980757;28;19980;-77
2023/06/14 01:22:54;;;;;;;;;;;;;;;17.28;51.06;101411.84;4958003;28;20013;-78
2023/06/14 01:25:22;;;;;;;;;;;;;;;17.23;51.14;101417.72;4977768;28;19964;-78
2023/06/14 01:28:14;;;;;;;;;;;;;;;17.23;51.65;101413.13;4974437;28;19922;-76
2023/06/14 01:30:45;;;;;;;;;;;;;;;17.09;52.95;101411.78;4979953;28;19944;-78
2023/06/14 01:33:17;;;;;;;;;;;;;;;17.15;52.36;101409.47;4979924;28;20516;-73
2023/06/14 01:35:43;;;;;;;;;;;;;;;17.22;52.57;101421.44;4980289;28;19921;-76
2023/06/14 01:38:09;;;;;;;;;;;;;;;17.18;52.58;101420.91;4979344;28;19922;-77
2023/06/14 01:40:34;;;;;;;;;;;;;;;17.08;52.01;101412.78;4977074;28;19928;-77
2023/06/14 01:42:59;;;;;;;;;;;;;;;17.04;52.36;101411.38;4976880;28;19926;-77
2023/06/14 01:45:25;;;;;;;;;;;;;;;17.02;54.20;101420.66;4960831;28;19932;-77
2023/06/14 01:47:51;;;;;;;;;;;;;;;16.63;54.37;101367.34;4977443;28;19970;-79
2023/06/14 01:50:16;;;;;;;;;;;;;;;16.89;54.46;101420.94;4977126;28;19922;-78
2023/06/14 01:52:42;;;;;;;;;;;;;;;16.84;54.56;101421.41;4988613;28;19981;-77
2023/06/14 01:55:07;;;;;;;;;;;;;;;16.63;55.30;101389.03;4981262;28;20044;-77
2023/06/14 01:57:33;;;;;;;;;;;;;;;16.72;55.47;101417.13;4977535;28;19921;-77
2023/06/14 01:59:58;;;;;;;;;;;;;;;16.67;55.03;101412.16;4974385;28;19922;-78
2023/06/14 02:02:23;;;;;;;;;;;;;;;16.63;56.31;101410.72;4972726;28;20299;-78
2023/06/14 02:04:49;;;;;;;;;;;;;;;16.55;56.37;101416.03;4977237;28;20348;-77
2023/06/14 02:07:14;;;;;;;;;;;;;;;16.49;56.21;101409.31;4976727;28;19922;-79
2023/06/14 02:09:41;;;;;;;;;;;;;;;16.51;56.08;101409.19;4977114;28;20399;-79
2023/06/14 02:12:07;;;;;;;;;;;;;;;16.49;57.84;101410.19;4976650;28;19941;-80
2023/06/14 02:14:33;;;;;;;;;;;;;;;16.44;56.81;101403.47;4968015;28;19921;-79
2023/06/14 02:16:58;;;;;;;;;;;;;;;16.47;56.67;101405.91;4995663;28;19921;-79
2023/06/14 02:19:23;;;;;;;;;;;;;;;16.47;57.41;101406.78;4979923;28;19977;-80
2023/06/14 02:21:49;;;;;;;;;;;;;;;16.39;57.45;101408.50;4979991;28;19927;-80
2023/06/14 02:24:16;;;;;;;;;;;;;;;16.36;57.30;101406.91;4980484;28;19961;-80
2023/06/14 02:26:41;;;;;;;;;;;;;;;16.38;57.29;101407.63;4978907;28;19926;-79
2023/06/14 02:29:09;;;;;;;;;;;;;;;16.31;56.77;101412.78;4983563;28;19929;-79
2023/06/14 02:31:35;;;;;;;;;;;;;;;16.33;57.78;101409.91;4982909;28;19929;-79
2023/06/14 02:34:00;;;;;;;;;;;;;;;16.33;57.89;101418.03;4969298;28;19921;-79
2023/06/14 02:36:26;;;;;;;;;;;;;;;16.29;58.25;101416.59;4989520;28;19925;-78
2023/06/14 02:38:53;;;;;;;;;;;;;;;16.22;58.62;101418.19;4987335;28;20005;-79
2023/06/14 02:41:19;;;;;;;;;;;;;;;16.14;59.13;101417.03;4988789;28;19922;-79
2023/06/14 02:43:44;;;;;;;;;;;;;;;16.07;60.76;101418.59;4972201;28;20284;-78
2023/06/14 02:46:10;;;;;;;;;;;;;;;16.01;60.66;101417.31;4986977;28;20360;-78
2023/06/14 02:48:35;;;;;;;;;;;;;;;16.03;61.01;101420.75;4985987;28;19967;-78
2023/06/14 02:51:01;;;;;;;;;;;;;;;16.02;62.75;101421.75;4985452;28;19922;-79
2023/06/14 02:53:27;;;;;;;;;;;;;;;15.97;61.50;101417.75;4982127;28;20388;-79
2023/06/14 02:55:52;;;;;;;;;;;;;;;15.82;61.67;101415.41;4980969;28;19973;-78
2023/06/14 02:58:18;;;;;;;;;;;;;;;15.71;63.18;101423.66;4978677;28;19984;-79
2023/06/14 03:00:43;;;;;;;;;;;;;;;15.61;64.88;101426.34;4974091;28;20328;-79
2023/06/14 03:03:16;;;;;;;;;;;;;;;15.52;66.50;101435.28;4987402;28;19928;-79
2023/06/14 03:05:45;;;;;;;;;;;;;;;15.48;68.57;101433.84;4973829;28;20466;-79
2023/06/14 03:08:16;;;;;;;;;;;;;;;15.40;68.93;101435.38;4968719;28;19922;-79
2023/06/14 03:10:43;;;;;;;;;;;;;;;15.30;69.47;101431.81;4956819;28;19958;-79
2023/06/14 03:13:08;;;;;;;;;;;;;;;15.25;71.45;101434.06;4969100;28;20401;-79
2023/06/14 03:15:33;;;;;;;;;;;;;;;15.16;71.66;101438.44;4969310;28;20913;-79
2023/06/14 03:17:59;;;;;;;;;;;;;;;15.11;73.63;101437.97;4967964;28;19958;-79
2023/06/14 03:20:29;;;;;;;;;;;;;;;15.09;74.72;101439.94;4969057;28;20028;-79
2023/06/14 03:22:55;;;;;;;;;;;;;;;15.00;75.08;101444.31;4965304;28;19980;-79
2023/06/14 03:25:21;;;;;;;;;;;;;;;14.96;75.72;101446.41;4969938;28;19922;-80
2023/06/14 03:27:47;;;;;;;;;;;;;;;14.81;76.00;101445.06;4964951;28;20332;-79
2023/06/14 03:30:12;;;;;;;;;;;;;;;14.85;77.20;101441.94;4965298;28;20414;-79
2023/06/14 03:32:37;;;;;;;;;;;;;;;14.85;76.87;101446.50;4965630;28;19933;-79
2023/06/14 03:35:03;;;;;;;;;;;;;;;14.89;75.92;101455.19;4971857;28;20016;-80
2023/06/14 03:37:28;;;;;;;;;;;;;;;14.95;75.79;101449.28;4967190;28;19933;-80
2023/06/14 03:39:54;;;;;;;;;;;;;;;15.03;73.72;101454.88;4968902;28;19926;-79
2023/06/14 03:42:19;;;;;;;;;;;;;;;15.02;74.18;101460.41;4969002;28;19980;-79
2023/06/14 03:44:44;;;;;;;;;;;;;;;15.09;74.35;101462.47;4967425;28;19930;-79
2023/06/14 03:47:09;;;;;;;;;;;;;;;15.08;74.28;101459.88;4967161;28;19999;-80
2023/06/14 03:49:35;;;;;;;;;;;;;;;15.07;74.09;101460.84;4966897;28;19968;-79
2023/06/14 03:52:00;;;;;;;;;;;;;;;15.05;74.39;101468.25;4966410;28;19971;-79
2023/06/14 03:54:26;;;;;;;;;;;;;;;14.98;76.55;101468.78;4970742;28;19929;-79
2023/06/14 03:56:51;;;;;;;;;;;;;;;14.93;77.13;101468.34;4965793;28;21783;-79
2023/06/14 03:59:16;;;;;;;;;;;;;;;14.95;76.61;101469.06;4964835;28;19968;-80
2023/06/14 04:01:44;;;;;;;;;;;;;;;14.94;75.81;101466.47;4967541;28;20028;-79
2023/06/14 04:04:09;;;;;;;;;;;;;;;14.95;75.74;101474.47;4964965;28;20717;-79
2023/06/14 04:06:35;;;;;;;;;;;;;;;14.96;76.66;101470.75;4968565;28;19932;-79
2023/06/14 04:09:03;;;;;;;;;;;;;;;14.94;78.73;101474.59;4969936;28;19933;-79
2023/06/14 04:11:29;;;;;;;;;;;;;;;14.98;79.18;101476.03;4973398;28;19918;-80
2023/06/14 04:13:56;;;;;;;;;;;;;;;15.02;78.70;101474.78;4971667;28;19925;-80
2023/06/14 04:16:21;;;;;;;;;;;;;;;15.07;79.42;101477.97;4973519;28;19928;-79
2023/06/14 04:18:48;;;;;;;;;;;;;;;15.08;80.43;101482.38;4973114;28;19925;-79
2023/06/14 04:21:13;;;;;;;;;;;;;;;15.17;78.04;101480.72;4971483;28;19925;-79
2023/06/14 04:23:38;;;;;;;;;;;;;;;15.18;76.77;101487.84;4969503;28;20411;-79
2023/06/14 04:26:04;;;;;;;;;;;;;;;15.22;76.30;101489.28;4969018;28;19921;-79
2023/06/14 04:28:29;;;;;;;;;;;;;;;15.26;74.39;101479.88;4968904;28;19926;-79
2023/06/14 04:30:55;;;;;;;;;;;;;;;15.17;75.67;101455.50;4975315;28;19924;-79
2023/06/14 04:33:20;;;;;;;;;;;;;;;15.38;75.93;101477.09;4988696;28;20012;-79
2023/06/14 04:35:47;;;;;;;;;;;;;;;15.45;75.00;101487.25;4977948;28;20315;-79
2023/06/14 04:38:12;;;;;;;;;;;;;;;15.56;73.13;101486.28;4977065;28;19932;-79
2023/06/14 04:40:42;;;;;;;;;;;;;;;15.62;72.95;101484.91;4976983;28;19922;-79
2023/06/14 04:43:08;;;;;;;;;;;;;;;15.70;72.38;101495.88;4977066;28;20030;-79
2023/06/14 04:45:33;;;;;;;;;;;;;;;15.79;71.88;101496.06;4972619;28;19926;-79
2023/06/14 04:47:59;;;;;;;;;;;;;;;15.84;71.55;101499.22;4972001;28;19965;-79
2023/06/14 04:50:24;;;;;;;;;;;;;;;15.92;73.65;101496.69;4983707;28;19957;-79
2023/06/14 04:52:51;;;;;;;;;;;;;;;16.06;69.67;101495.44;4976457;28;19932;-79
2023/06/14 04:55:16;;;;;;;;;;;;;;;16.17;68.31;101494.44;4978056;28;20295;-79
2023/06/14 04:57:41;;;;;;;;;;;;;;;16.29;69.16;101493.34;4974536;28;20280;-79
2023/06/14 05:00:07;;;;;;;;;;;;;;;16.37;70.54;101503.47;4973312;28;19925;-79
2023/06/14 05:02:32;;;;;;;;;;;;;;;16.53;68.83;101507.50;4973674;28;19958;-79
2023/06/14 05:04:59;;;;;;;;;;;;;;;16.60;66.90;101497.75;4969059;28;20613;-78
2023/06/14 05:07:24;;;;;;;;;;;;;;;16.70;67.72;101497.75;4979466;28;19926;-78
2023/06/14 05:09:49;;;;;;;;;;;;;;;16.78;67.22;101506.03;4979338;28;19922;-77
2023/06/14 05:12:18;;;;;;;;;;;;;;;16.88;65.00;101508.72;4973004;28;19941;-79
2023/06/14 05:14:43;;;;;;;;;;;;;;;17.00;63.24;101510.31;4988114;28;19929;-78
2023/06/14 05:17:09;;;;;;;;;;;;;;;17.10;62.52;101507.59;4971829;28;19926;-76
2023/06/14 05:19:34;;;;;;;;;;;;;;;17.01;63.31;101489.47;4974667;28;20364;-78
2023/06/14 05:22:00;;;;;;;;;;;;;;;17.22;62.43;101517.25;4976688;28;19971;-78
2023/06/14 05:24:25;;;;;;;;;;;;;;;17.32;62.49;101521.81;4972829;28;19933;-81
2023/06/14 05:26:50;;;;;;;;;;;;;;;17.37;61.65;101523.06;4972673;28;19924;-80
2023/06/14 05:29:17;;;;;;;;;;;;;;;17.41;60.64;101529.09;4974850;28;20393;-78
2023/06/14 05:31:42;;;;;;;;;;;;;;;17.50;61.71;101525.44;4976448;28;19922;-78
2023/06/14 05:34:07;;;;;;;;;;;;;;;17.63;61.63;101525.13;4976548;28;19968;-79
2023/06/14 05:36:32;;;;;;;;;;;;;;;17.71;59.65;101526.25;4976062;28;20507;-78
2023/06/14 05:38:59;;;;;;;;;;;;;;;17.78;59.21;101530.06;4976405;28;19953;-76
2023/06/14 05:41:27;;;;;;;;;;;;;;;17.72;58.06;101530.66;4970339;28;20020;-76
2023/06/14 05:43:56;;;;;;;;;;;;;;;17.76;60.45;101538.34;4973599;28;20720;-79
2023/06/14 05:46:24;;;;;;;;;;;;;;;17.78;59.07;101536.34;4972565;28;20012;-78
2023/06/14 05:48:49;;;;;;;;;;;;;;;17.90;59.65;101544.31;4973891;28;19930;-78
2023/06/14 05:51:18;;;;;;;;;;;;;;;17.93;60.61;101538.56;4968885;28;20009;-76
2023/06/14 05:53:43;;;;;;;;;;;;;;;18.02;59.53;101543.13;4975049;28;19985;-76
2023/06/14 05:56:09;;;;;;;;;;;;;;;18.07;57.86;101543.53;4972372;28;19921;-76
2023/06/14 05:58:34;;;;;;;;;;;;;;;18.06;58.67;101549.13;4972217;28;19928;-78
2023/06/14 06:00:59;;;;;;;;;;;;;;;18.11;57.23;101554.97;4967625;28;19936;-75
2023/06/14 06:03:24;;;;;;;;;;;;;;;18.21;57.43;101552.19;4974015;28;19929;-76
2023/06/14 06:05:49;;;;;;;;;;;;;;;18.13;58.16;101552.94;4975333;28;19925;-76
2023/06/14 06:08:16;;;;;;;;;;;;;;;18.25;59.30;101559.03;4973922;28;20337;-74
2023/06/14 06:10:42;;;;;;;;;;;;;;;18.34;57.15;101558.09;4972112;28;19979;-72
2023/06/14 06:13:07;;;;;;;;;;;;;;;18.44;58.17;101558.03;4990281;28;20451;-76
2023/06/14 06:15:32;;;;;;;;;;;;;;;18.56;58.82;101554.09;4974341;28;19922;-77
2023/06/14 06:17:57;;;;;;;;;;;;;;;18.66;58.63;101561.31;4976873;28;20368;-74
2023/06/14 06:20:27;;;;;;;;;;;;;;;18.62;57.19;101560.75;4974968;28;20330;-74
2023/06/14 06:22:53;;;;;;;;;;;;;;;18.69;58.02;101567.28;4972566;28;19928;-78
2023/06/14 06:25:19;;;;;;;;;;;;;;;18.76;56.89;101562.06;4977950;28;19957;-83
2023/06/14 06:27:44;;;;;;;;;;;;;;;18.93;55.69;101570.41;4974597;28;20339;-77
2023/06/14 06:30:10;;;;;;;;;;;;;;;18.92;55.05;101574.97;4977919;28;19921;-76
2023/06/14 06:32:35;;;;;;;;;;;;;;;19.02;55.22;101570.34;4967909;28;19957;-73
2023/06/14 06:35:00;;;;;;;;;;;;;;;19.04;55.38;101572.88;4970067;28;19956;-75
2023/06/14 06:37:26;;;;;;;;;;;;;;;19.22;57.68;101577.44;4975554;28;19922;-75
2023/06/14 06:39:51;;;;;;;;;;;;;;;19.41;56.00;101576.38;5002550;28;19929;-77
2023/06/14 06:42:16;;;;;;;;;;;;;;;19.35;56.77;101586.06;4983726;28;20171;-75
2023/06/14 06:44:41;;;;;;;;;;;;;;;19.49;56.17;101577.28;4977200;28;20295;-74
2023/06/14 06:47:07;;;;;;;;;;;;;;;19.74;58.02;101584.75;4976782;28;20064;-76
2023/06/14 06:49:32;;;;;;;;;;;;;;;19.85;55.29;101580.91;4973744;28;19921;-75
2023/06/14 06:52:06;;;;;;;;;;;;;;;20.04;54.68;101594.28;4977342;28;21107;-75
2023/06/14 06:54:32;;;;;;;;;;;;;;;20.10;55.00;101590.06;4976247;28;19952;-75
2023/06/14 06:56:57;;;;;;;;;;;;;;;20.21;54.00;101591.66;4975939;28;20348;-73
2023/06/14 06:59:22;;;;;;;;;;;;;;;20.32;53.25;101594.06;4971354;28;19969;-73
2023/06/14 07:01:48;;;;;;;;;;;;;;;20.31;52.01;101605.97;4974756;28;19924;-77
2023/06/14 07:04:13;;;;;;;;;;;;;;;20.27;53.68;101607.31;4987235;28;19926;-76
2023/06/14 07:06:38;;;;;;;;;;;;;;;20.29;51.56;101602.56;4977686;28;20304;-74
2023/06/14 07:09:06;;;;;;;;;;;;;;;20.50;53.29;101602.13;4969174;28;20299;-75
2023/06/14 07:11:31;;;;;;;;;;;;;;;20.67;52.51;101604.88;4976433;28;20288;-75
2023/06/14 07:13:57;;;;;;;;;;;;;;;20.62;52.65;101582.72;4975364;28;19930;-72
2023/06/14 07:16:23;;;;;;;;;;;;;;;20.82;51.60;101613.28;4971659;28;20367;-75
2023/06/14 07:18:48;;;;;;;;;;;;;;;21.00;50.21;101604.94;4969104;28;19973;-74
2023/06/14 07:21:13;;;;;;;;;;;;;;;21.00;50.05;101601.38;4975772;28;20008;-76
2023/06/14 07:23:39;;;;;;;;;;;;;;;21.11;51.50;101604.63;4975653;28;19925;-78
2023/06/14 07:26:04;;;;;;;;;;;;;;;21.29;49.36;101609.03;4974361;28;20040;-75
2023/06/14 07:28:30;;;;;;;;;;;;;;;21.46;49.40;101617.19;4965900;28;19944;-77
2023/06/14 07:30:55;;;;;;;;;;;;;;;21.57;48.55;101605.94;4969866;28;19961;-74
2023/06/14 07:33:20;;;;;;;;;;;;;;;21.34;47.69;101616.69;4971560;28;19926;-71
2023/06/14 07:35:45;;;;;;;;;;;;;;;21.43;48.17;101611.09;4974914;28;19957;-75
2023/06/14 07:38:11;;;;;;;;;;;;;;;21.67;48.82;101619.41;4976151;28;19997;-75
2023/06/14 07:40:36;;;;;;;;;;;;;;;21.73;48.53;101611.38;4975913;28;20376;-77
2023/06/14 07:43:02;;;;;;;;;;;;;;;21.75;47.86;101616.69;4965106;28;20120;-76
2023/06/14 07:45:27;;;;;;;;;;;;;;;21.85;49.47;101617.31;4969395;28;19926;-75
2023/06/14 07:47:52;;;;;;;;;;;;;;;21.94;47.33;101625.50;4974371;28;20319;-74
2023/06/14 07:50:17;;;;;;;;;;;;;;;22.03;46.55;101624.44;4975743;28;19940;-75
2023/06/14 07:52:43;;;;;;;;;;;;;;;21.89;46.99;101631.50;4968146;28;19965;-78
2023/06/14 07:55:09;;;;;;;;;;;;;;;21.87;48.14;101628.09;4975397;28;20000;-75
2023/06/14 07:57:35;;;;;;;;;;;;;;;21.83;46.12;101613.06;4972323;28;19929;-74
2023/06/14 08:00:00;;;;;;;;;;;;;;;22.20;46.72;101629.84;4976303;28;19921;-73
2023/06/14 08:02:25;;;;;;;;;;;;;;;22.28;46.12;101638.03;4983233;28;19932;-75
2023/06/14 08:04:50;;;;;;;;;;;;;;;22.34;45.43;101642.78;4991994;28;19928;-77
2023/06/14 08:07:16;;;;;;;;;;;;;;;22.30;43.55;101641.44;4991293;28;20653;-74
2023/06/14 08:09:41;;;;;;;;;;;;;;;22.27;43.53;101639.88;4973091;28;20347;-74
2023/06/14 08:12:12;;;;;;;;;;;;;;;22.37;43.58;101642.44;4969206;28;20052;-74
2023/06/14 08:14:38;;;;;;;;;;;;;;;22.48;43.45;101635.75;4953904;28;20884;-76
2023/06/14 08:17:03;;;;;;;;;;;;;;;22.54;44.35;101636.91;4953228;28;20296;-74
2023/06/14 08:19:29;;;;;;;;;;;;;;;22.61;44.53;101640.63;4972215;28;19929;-73
2023/06/14 08:21:56;;;;;;;;;;;;;;;22.77;41.99;101645.16;4974661;28;20037;-73
2023/06/14 08:24:24;;;;;;;;;;;;;;;22.88;41.51;101641.97;4986023;28;19972;-73
2023/06/14 08:26:49;;;;;;;;;;;;;;;22.91;41.47;101644.34;4972671;28;20406;-76
2023/06/14 08:29:15;;;;;;;;;;;;;;;22.92;39.66;101648.81;4969048;28;19965;-74
2023/06/14 08:31:40;;;;;;;;;;;;;;;22.96;40.16;101642.97;4971430;28;19925;-75
2023/06/14 08:34:06;;;;;;;;;;;;;;;23.04;40.17;101648.38;4969327;28;19925;-74
2023/06/14 08:36:31;;;;;;;;;;;;;;;23.09;39.00;101637.72;4974726;28;19945;-73
2023/06/14 08:38:56;;;;;;;;;;;;;;;23.31;39.12;101644.25;4973289;28;19945;-78
2023/06/14 08:41:23;;;;;;;;;;;;;;;23.19;38.20;101646.53;4972498;28;20416;-74
2023/06/14 08:43:49;;;;;;;;;;;;;;;23.18;37.65;101653.06;4968867;28;20036;-77
2023/06/14 08:46:16;;;;;;;;;;;;;;;23.13;40.59;101643.69;4969711;28;19937;-78
2023/06/14 08:48:43;;;;;;;;;;;;;;;23.34;39.61;101646.63;4970700;28;19987;-77
2023/06/14 08:51:08;;;;;;;;;;;;;;;23.47;37.20;101640.50;4973861;28;20398;-77
2023/06/14 08:53:33;;;;;;;;;;;;;;;23.58;39.18;101635.59;4971433;28;19929;-73
2023/06/14 08:56:02;;;;;;;;;;;;;;;23.71;42.79;101637.69;4969998;28;20258;-72
2023/06/14 08:58:29;;;;;;;;;;;;;;;23.84;39.26;101629.66;4970609;28;19922;-77
2023/06/14 09:00:55;;;;;;;;;;;;;;;23.59;39.01;101645.50;4953140;28;19930;-75
2023/06/14 09:03:21;;;;;;;;;;;;;;;23.49;40.26;101634.81;4969461;28;20279;-74
2023/06/14 09:05:46;;;;;;;;;;;;;;;23.45;39.56;101633.50;4977869;28;19928;-76
2023/06/14 09:08:12;;;;;;;;;;;;;;;23.54;39.40;101634.28;4976077;28;19926;-76
2023/06/14 09:10:37;;;;;;;;;;;;;;;23.71;39.68;101641.28;4975440;28;19996;-75
2023/06/14 09:13:03;;;;;;;;;;;;;;;23.76;38.70;101636.09;4968641;28;19949;-74
2023/06/14 09:15:28;;;;;;;;;;;;;;;23.81;40.04;101641.00;4974846;28;19925;-75
2023/06/14 09:17:53;;;;;;;;;;;;;;;24.09;40.33;101635.75;4969235;28;19925;-76
2023/06/14 09:20:19;;;;;;;;;;;;;;;24.02;36.28;101639.44;4975201;28;20012;-76
2023/06/14 09:22:44;;;;;;;;;;;;;;;24.09;37.82;101644.00;4972699;28;19922;-75
2023/06/14 09:25:09;;;;;;;;;;;;;;;24.04;38.49;101640.97;4990249;28;20607;-76
2023/06/14 09:27:35;;;;;;;;;;;;;;;24.17;36.65;101643.03;4970520;28;19945;-74
2023/06/14 09:30:01;;;;;;;;;;;;;;;24.37;38.51;101645.19;4973809;28;19921;-74
2023/06/14 09:32:26;;;;;;;;;;;;;;;24.37;37.53;101646.00;4971960;28;19925;-79
2023/06/14 09:34:52;;;;;;;;;;;;;;;24.29;36.69;101646.16;4974043;28;20422;-77
2023/06/14 09:37:30;;;;;;;;;;;;;;;24.35;38.80;101644.50;4977375;28;20518;-75
2023/06/14 09:39:56;;;;;;;;;;;;;;;24.50;36.84;101631.59;4977248;28;19922;-74
2023/06/14 09:42:22;;;;;;;;;;;;;;;24.58;39.32;101644.38;4975725;28;19925;-75
2023/06/14 09:44:48;;;;;;;;;;;;;;;24.67;38.13;101640.47;4955430;28;19926;-76
2023/06/14 09:47:16;;;;;;;;;;;;;;;24.79;37.17;101640.00;4976241;28;20655;-78
2023/06/14 09:49:42;;;;;;;;;;;;;;;24.52;35.07;101645.16;4977793;28;19922;-77
2023/06/14 09:52:08;;;;;;;;;;;;;;;24.39;35.58;101646.66;4993856;28;20031;-77
2023/06/14 09:54:33;;;;;;;;;;;;;;;24.53;37.04;101644.94;4974581;28;19988;-76
2023/06/14 09:56:58;;;;;;;;;;;;;;;24.70;36.35;101645.56;4976396;28;20557;-77
2023/06/14 09:59:29;;;;;;;;;;;;;;;24.62;36.41;101645.69;4976063;28;20368;-76
2023/06/14 10:01:54;;;;;;;;;;;;;;;24.77;34.25;101647.56;4974932;28;19925;-74
2023/06/14 10:04:20;;;;;;;;;;;;;;;24.98;38.49;101639.34;4973017;28;19969;-74
2023/06/14 10:06:48;;;;;;;;;;;;;;;25.13;37.64;101636.50;4976840;28;20060;-76
2023/06/14 10:09:14;;;;;;;;;;;;;;;25.29;35.17;101627.16;4975074;28;19922;-81
2023/06/14 10:11:43;;;;;;;;;;;;;;;25.39;34.69;101632.28;4974465;28;20021;-75
2023/06/14 10:14:08;;;;;;;;;;;;;;;25.47;35.25;101636.81;4976684;28;19953;-73
2023/06/14 10:16:39;;;;;;;;;;;;;;;25.62;36.45;101631.22;4978553;28;20395;-74
2023/06/14 10:19:28;;;;;;;;;;;;;;;25.59;34.38;101642.63;4974932;28;19922;-75
2023/06/14 10:21:56;;;;;;;;;;;;;;;25.26;34.97;101643.19;4971730;28;20628;-73
2023/06/14 10:24:30;;;;;;;;;;;;;;;25.62;34.78;101636.72;4975667;28;19921;-73
2023/06/14 10:26:57;;;;;;;;;;;;;;;25.73;37.48;101632.56;4978646;28;19917;-75
2023/06/14 10:29:22;;;;;;;;;;;;;;;25.76;37.57;101629.41;4975536;28;20032;-79
2023/06/14 10:31:48;;;;;;;;;;;;;;;25.87;37.67;101639.00;4963346;28;19972;-74
2023/06/14 10:34:27;;;;;;;;;;;;;;;25.87;35.66;101628.84;4976926;28;20044;-77
2023/06/14 10:37:11;;;;;;;;;;;;;;;25.76;38.25;101629.41;4974384;28;19971;-77
2023/06/14 10:39:40;;;;;;;;;;;;;;;26.18;35.01;101632.22;4974686;28;19960;-77
2023/06/14 10:42:06;;;;;;;;;;;;;;;26.34;35.29;101631.00;4969004;28;20415;-75
2023/06/14 10:44:32;;;;;;;;;;;;;;;26.35;35.71;101628.03;4970954;28;19926;-74
2023/06/14 10:47:00;;;;;;;;;;;;;;;26.34;35.67;101633.75;4972762;28;19929;-73
2023/06/14 10:49:40;;;;;;;;;;;;;;;26.64;37.48;101636.19;4973427;28;19929;-77
2023/06/14 10:52:09;;;;;;;;;;;;;;;26.85;35.75;101643.50;4976815;28;19928;-76
2023/06/14 10:54:34;;;;;;;;;;;;;;;26.24;34.97;101634.16;4974368;28;20025;-72
2023/06/14 10:56:59;;;;;;;;;;;;;;;26.42;35.68;101621.72;4979579;28;19922;-71
2023/06/14 10:59:25;;;;;;;;;;;;;;;26.73;35.61;101632.19;4972965;28;20273;-74
2023/06/14 11:01:50;;;;;;;;;;;;;;;27.01;33.94;101633.97;4975596;28;20022;-77
2023/06/14 11:04:15;;;;;;;;;;;;;;;27.26;33.58;101638.88;4969749;28;20012;-75
2023/06/14 11:06:43;;;;;;;;;;;;;;;27.37;34.90;101643.72;4988427;28;20265;-73
2023/06/14 11:09:27;;;;;;;;;;;;;;;27.53;36.19;101633.38;4975860;28;19925;-76
2023/06/14 11:11:52;;;;;;;;;;;;;;;27.43;33.39;101635.66;4973760;28;19979;-77
2023/06/14 11:14:17;;;;;;;;;;;;;;;27.51;33.62;101632.72;4972177;28;19965;-75
2023/06/14 11:16:47;;;;;;;;;;;;;;;27.54;34.40;101624.88;4957617;28;20066;-77
2023/06/14 11:19:12;;;;;;;;;;;;;;;27.80;33.62;101633.31;4974532;28;20633;-73
2023/06/14 11:21:39;;;;;;;;;;;;;;;28.28;35.55;101621.94;4975436;28;19989;-77
2023/06/14 11:24:09;;;;;;;;;;;;;;;28.59;34.27;101627.72;4953585;28;19924;-75
2023/06/14 11:26:37;;;;;;;;;;;;;;;27.99;33.89;101631.53;4972473;28;19922;-79
2023/06/14 11:29:02;;;;;;;;;;;;;;;28.57;34.13;101638.13;4993205;28;19922;-74
2023/06/14 11:31:27;;;;;;;;;;;;;;;28.71;34.92;101630.63;4976608;28;19921;-78
2023/06/14 11:33:53;;;;;;;;;;;;;;;28.47;32.20;101635.03;4975743;28;19929;-77
2023/06/14 11:36:18;;;;;;;;;;;;;;;28.36;32.17;101620.81;4988372;28;19972;-77
2023/06/14 11:38:44;;;;;;;;;;;;;;;28.37;32.52;101624.41;4980679;28;19918;-78
2023/06/14 11:41:09;;;;;;;;;;;;;;;28.26;32.40;101613.03;4959057;28;20310;-74
2023/06/14 11:43:35;;;;;;;;;;;;;;;28.57;33.01;101629.84;4971036;28;19930;-76
2023/06/14 11:46:00;;;;;;;;;;;;;;;28.28;31.95;101634.88;4968807;28;20375;-74
2023/06/14 11:48:35;;;;;;;;;;;;;;;28.72;32.10;101624.03;4973999;28;20548;-78
2023/06/14 11:51:01;;;;;;;;;;;;;;;28.60;31.72;101618.34;4973370;28;19921;-73
2023/06/14 11:53:26;;;;;;;;;;;;;;;29.05;30.63;101622.97;4973646;28;20395;-78
2023/06/14 11:55:51;;;;;;;;;;;;;;;29.46;31.59;101632.63;4989139;28;20424;-78
2023/06/14 11:58:16;;;;;;;;;;;;;;;29.45;30.67;101630.94;4975625;28;20525;-80
2023/06/14 12:00:42;;;;;;;;;;;;;;;29.50;30.56;101630.28;4968700;28;20666;-75
2023/06/14 12:03:07;;;;;;;;;;;;;;;29.18;29.08;101628.38;4973038;28;19957;-76
2023/06/14 12:05:32;;;;;;;;;;;;;;;28.78;30.86;101623.16;4974515;28;19957;-73
2023/06/14 12:07:59;;;;;;;;;;;;;;;28.91;29.99;101622.22;4975961;28;20036;-74
2023/06/14 12:10:25;;;;;;;;;;;;;;;29.16;30.26;101633.28;4973569;28;20299;-74
2023/06/14 12:12:50;;;;;;;;;;;;;;;29.33;30.85;101622.50;4972934;28;19925;-78
2023/06/14 12:15:16;;;;;;;;;;;;;;;29.51;30.06;101631.13;4972714;28;19926;-75
2023/06/14 12:17:42;;;;;;;;;;;;;;;28.97;33.13;101628.78;4974010;28;20447;-74
2023/06/14 12:20:11;;;;;;;;;;;;;;;29.03;28.99;101622.34;4972905;28;19965;-76
2023/06/14 12:22:36;;;;;;;;;;;;;;;28.40;29.65;101624.84;4971418;28;19924;-76
2023/06/14 12:25:03;;;;;;;;;;;;;;;29.14;32.47;101626.31;4971187;28;19921;-76
2023/06/14 12:27:28;;;;;;;;;;;;;;;29.47;30.15;101628.81;4991312;28;20333;-73
2023/06/14 12:30:03;;;;;;;;;;;;;;;29.72;28.48;101636.22;4993657;28;19921;-76
2023/06/14 12:32:29;;;;;;;;;;;;;;;29.87;30.07;101619.22;4955383;28;20442;-79